Time;durP1;ratioP1;P1;durP2;ratioP2;P2;SDS_P1;SDS_P2;PMS_P1;PMS_P2;Temp;Humidity;BMP_temperature;BMP_pressure;BME280_temperature;BME280_humidity;BME280_pressure;Samples;Min_cycle;Max_cycle;Signal;HPM_P1;HPM_P2
2023/10/12 03:02:14;;;;;;;12.43;3.33;;;13.00;99.90;;;;;;5298753;23;20047;-81
2023/10/12 03:04:39;;;;;;;17.63;3.55;;;13.00;99.90;;;;;;4954375;28;20498;-80
2023/10/12 03:07:11;;;;;;;15.52;3.58;;;13.00;99.90;;;;;;4954258;29;20074;-80
2023/10/12 03:09:43;;;;;;;19.20;3.67;;;13.00;99.90;;;;;;4954152;29;20054;-79
2023/10/12 03:12:09;;;;;;;16.70;3.83;;;13.00;99.90;;;;;;4954306;29;20106;-80
2023/10/12 03:14:35;;;;;;;17.90;3.47;;;13.00;99.90;;;;;;4954033;29;20074;-80
2023/10/12 03:17:05;;;;;;;13.48;3.80;;;13.00;99.90;;;;;;4954071;29;20050;-80
2023/10/12 03:19:35;;;;;;;20.67;4.13;;;13.00;99.90;;;;;;4954068;29;20094;-80
2023/10/12 03:22:16;;;;;;;16.20;3.05;;;12.90;99.90;;;;;;4954058;29;20051;-80
2023/10/12 03:24:45;;;;;;;16.42;3.50;;;12.90;99.90;;;;;;4954010;29;20047;-81
2023/10/12 03:27:11;;;;;;;17.70;3.40;;;13.00;99.90;;;;;;4954240;29;20431;-80
2023/10/12 03:29:43;;;;;;;16.00;3.58;;;12.90;99.90;;;;;;4953928;29;20047;-80
2023/10/12 03:32:11;;;;;;;19.83;3.85;;;12.90;99.90;;;;;;4954053;29;20131;-81
2023/10/12 03:37:14;;;;;;;24.02;4.07;;;13.00;99.90;;;;;;4953951;29;20043;-80
2023/10/12 03:52:27;;;;;;;19.75;4.10;;;12.90;99.90;;;;;;4957699;29;20122;-80
2023/10/12 04:02:45;;;;;;;20.90;3.97;;;13.00;99.90;;;;;;4957466;29;20070;-79
2023/10/12 04:05:20;;;;;;;21.02;4.10;;;12.90;99.90;;;;;;4957623;29;20077;-79
2023/10/12 04:16:27;;;;;;;19.27;4.75;;;13.00;99.90;;;;;;4957399;29;20376;-81
2023/10/12 04:21:33;;;;;;;17.35;4.55;;;13.00;99.90;;;;;;4958426;28;20051;-81
2023/10/12 04:26:38;;;;;;;20.25;5.13;;;13.00;99.90;;;;;;4956832;29;20070;-81
2023/10/12 04:29:08;;;;;;;22.20;4.57;;;13.00;99.90;;;;;;4956901;29;20058;-80
2023/10/12 04:31:36;;;;;;;16.85;4.53;;;13.00;99.90;;;;;;4956823;29;20070;-81
2023/10/12 04:36:44;;;;;;;21.38;4.75;;;13.10;99.90;;;;;;4956757;29;20073;-80
2023/10/12 04:39:15;;;;;;;26.35;4.40;;;13.00;99.90;;;;;;4956802;29;20083;-80
2023/10/12 04:46:51;;;;;;;22.35;4.60;;;13.00;99.90;;;;;;4956579;29;20480;-80
2023/10/12 04:51:50;;;;;;;22.35;4.53;;;13.00;99.90;;;;;;4956644;29;20051;-80
2023/10/12 04:54:17;;;;;;;17.10;4.20;;;13.00;99.90;;;;;;4957990;28;20046;-80
2023/10/12 04:56:56;;;;;;;18.42;4.75;;;13.00;99.90;;;;;;4955892;28;20114;-79
2023/10/12 04:59:28;;;;;;;16.25;4.60;;;13.10;99.90;;;;;;4956700;29;20105;-80
2023/10/12 05:02:15;;;;;;;22.25;5.07;;;13.10;99.90;;;;;;4940180;29;20122;-80
2023/10/12 05:09:38;;;;;;;18.08;4.30;;;13.00;99.90;;;;;;4957661;29;20039;-81
2023/10/12 05:12:04;;;;;;;24.08;4.72;;;13.00;99.90;;;;;;4957271;28;20050;-81
2023/10/12 05:14:31;;;;;;;22.65;5.38;;;13.10;99.90;;;;;;4956378;29;20043;-80
2023/10/12 05:16:56;;;;;;;22.67;5.07;;;13.10;99.90;;;;;;4956456;29;20399;-80
2023/10/12 05:19:22;;;;;;;24.35;5.57;;;13.00;99.90;;;;;;4956369;29;20039;-81
2023/10/12 05:21:48;;;;;;;21.27;4.93;;;13.10;99.90;;;;;;4956186;29;20039;-80
2023/10/12 05:24:13;;;;;;;27.85;5.50;;;13.00;99.90;;;;;;4955926;29;20043;-80
2023/10/12 05:26:39;;;;;;;26.45;5.30;;;13.00;99.90;;;;;;4955867;29;20380;-79
2023/10/12 05:29:26;;;;;;;23.02;5.70;;;13.10;99.90;;;;;;4939910;29;20043;-80
2023/10/12 05:32:05;;;;;;;26.35;5.43;;;13.00;99.90;;;;;;4956058;29;20047;-80
2023/10/12 05:37:16;;;;;;;23.05;5.65;;;13.10;99.90;;;;;;4955789;29;20059;-80
2023/10/12 05:39:55;;;;;;;18.77;5.00;;;13.10;99.90;;;;;;4955982;29;20103;-80
2023/10/12 05:42:23;;;;;;;28.75;5.07;;;13.00;99.90;;;;;;4955568;29;20054;-80
2023/10/12 05:44:51;;;;;;;23.90;4.82;;;13.00;99.90;;;;;;4955625;29;20484;-80
2023/10/12 05:47:18;;;;;;;17.85;4.43;;;13.00;99.90;;;;;;4955785;29;20043;-80
2023/10/12 05:49:50;;;;;;;22.15;4.50;;;13.00;99.90;;;;;;4955392;29;20051;-79
2023/10/12 05:52:17;;;;;;;17.80;4.22;;;12.90;99.90;;;;;;4955485;29;20051;-80
2023/10/12 05:54:43;;;;;;;17.23;4.63;;;12.90;99.90;;;;;;4955279;29;20043;-80
2023/10/12 05:57:25;;;;;;;23.50;4.57;;;12.80;99.90;;;;;;4955274;29;20043;-80
2023/10/12 05:59:51;;;;;;;23.70;4.10;;;12.80;99.90;;;;;;4939291;29;20079;-80
2023/10/12 06:02:22;;;;;;;23.15;3.80;;;12.80;99.90;;;;;;4956267;28;20098;-80
2023/10/12 06:04:48;;;;;;;28.38;5.43;;;12.70;99.90;;;;;;4955828;29;20051;-80
2023/10/12 06:07:14;;;;;;;18.42;3.88;;;12.70;99.90;;;;;;4955030;28;20506;-80
2023/10/12 06:09:40;;;;;;;16.15;4.18;;;12.60;99.90;;;;;;4954991;29;20408;-81
2023/10/12 06:12:07;;;;;;;24.70;3.97;;;12.60;99.90;;;;;;4956230;29;20043;-80
2023/10/12 06:14:34;;;;;;;16.88;3.97;;;12.60;99.90;;;;;;4956091;29;20047;-80
2023/10/12 06:17:05;;;;;;;21.05;5.28;;;12.60;99.90;;;;;;4954955;29;20070;-80
2023/10/12 06:19:37;;;;;;;18.58;4.75;;;12.50;99.90;;;;;;4954978;29;20043;-80
2023/10/12 06:22:23;;;;;;;17.00;4.65;;;12.60;99.90;;;;;;4954941;29;20035;-81
2023/10/12 06:24:52;;;;;;;18.42;4.30;;;12.50;99.90;;;;;;4956160;29;20043;-81
2023/10/12 06:29:45;;;;;;;14.82;4.03;;;12.50;99.90;;;;;;4955443;29;20086;-81
2023/10/12 06:32:17;;;;;;;16.48;4.70;;;12.50;99.90;;;;;;4954654;29;20043;-81
2023/10/12 06:34:43;;;;;;;17.38;4.88;;;12.40;99.90;;;;;;4955225;29;20159;-81
2023/10/12 06:40:37;;;;;;;24.35;4.93;;;12.40;99.90;;;;;;4955038;29;20093;-80
2023/10/12 06:45:55;;;;;;;15.77;4.97;;;12.40;99.90;;;;;;4954945;29;20083;-80
2023/10/12 06:48:43;;;;;;;17.23;3.70;;;12.40;99.90;;;;;;4954515;29;20055;-81
2023/10/12 06:51:15;;;;;;;14.77;3.92;;;12.40;99.90;;;;;;4955094;29;20463;-80
2023/10/12 06:53:51;;;;;;;20.13;4.22;;;12.30;99.90;;;;;;4954489;29;20074;-81
2023/10/12 06:59:07;;;;;;;16.50;4.53;;;12.40;99.90;;;;;;4954785;29;20460;-80
2023/10/12 07:01:38;;;;;;;18.58;4.72;;;12.40;99.90;;;;;;4955425;29;20051;-80
2023/10/12 07:04:13;;;;;;;18.17;4.30;;;12.40;99.90;;;;;;4954396;29;20075;-79
2023/10/12 07:07:07;;;;;;;14.98;4.30;;;12.40;99.90;;;;;;4954556;29;20105;-79
2023/10/12 07:09:39;;;;;;;18.38;4.10;;;12.50;99.90;;;;;;4954207;29;20096;-81
2023/10/12 07:12:07;;;;;;;14.70;3.45;;;12.50;99.90;;;;;;4946205;29;20055;-80
2023/10/12 07:14:37;;;;;;;13.50;3.47;;;12.50;99.90;;;;;;4935214;29;20142;-81
2023/10/12 07:17:09;;;;;;;16.85;3.60;;;12.50;99.90;;;;;;4935065;29;20050;-80
2023/10/12 07:19:40;;;;;;;14.02;3.40;;;12.60;99.90;;;;;;4934548;29;20517;-79
2023/10/12 07:22:09;;;;;;;17.15;3.85;;;12.60;99.90;;;;;;4934876;29;20053;-81
2023/10/12 07:24:38;;;;;;;13.85;3.00;;;12.60;99.90;;;;;;4943592;29;20055;-81
2023/10/12 07:27:11;;;;;;;14.98;3.75;;;12.60;99.90;;;;;;4953981;29;20094;-79
2023/10/12 07:29:44;;;;;;;12.45;3.13;;;12.60;99.90;;;;;;4939212;29;20062;-80
2023/10/12 07:32:30;;;;;;;10.75;2.88;;;12.70;99.90;;;;;;4953704;29;20049;-79
2023/10/12 07:34:57;;;;;;;16.35;3.58;;;12.80;99.90;;;;;;4954239;29;20089;-80
2023/10/12 07:37:24;;;;;;;16.45;2.83;;;12.80;99.90;;;;;;4955334;28;20086;-80
2023/10/12 07:39:51;;;;;;;12.57;2.50;;;12.90;99.90;;;;;;4954380;29;20054;-79
2023/10/12 07:42:25;;;;;;;15.10;3.10;;;12.90;99.90;;;;;;4954024;29;20075;-78
2023/10/12 07:44:54;;;;;;;8.52;2.30;;;13.00;99.90;;;;;;4937988;29;20479;-81
2023/10/12 07:47:31;;;;;;;14.60;3.33;;;12.90;99.90;;;;;;4955249;28;20106;-80
2023/10/12 07:50:06;;;;;;;13.18;2.38;;;13.00;99.90;;;;;;4937641;29;20491;-81
2023/10/12 07:52:39;;;;;;;16.15;3.13;;;13.00;99.90;;;;;;4953526;29;20090;-79
2023/10/12 07:55:10;;;;;;;13.25;2.42;;;13.00;99.90;;;;;;4953595;29;20101;-80
2023/10/12 07:57:37;;;;;;;13.25;2.70;;;13.00;99.90;;;;;;4953625;29;20070;-79
2023/10/12 08:15:55;;;;;;;12.88;2.30;;;13.10;99.90;;;;;;4953582;29;20106;-80
2023/10/12 08:21:31;;;;;;;11.90;2.25;;;13.20;99.90;;;;;;4953263;29;20106;-80
2023/10/12 08:24:09;;;;;;;6.28;2.00;;;13.20;99.90;;;;;;4954075;29;20482;-80
2023/10/12 08:31:46;;;;;;;13.32;1.98;;;13.20;99.90;;;;;;4954286;28;20419;-80
2023/10/12 08:42:37;;;;;;;16.77;3.05;;;13.30;99.90;;;;;;4956778;29;20055;-81
2023/10/12 08:45:14;;;;;;;15.48;2.05;;;13.30;99.90;;;;;;4956759;29;20052;-80
2023/10/12 08:47:49;;;;;;;15.95;2.15;;;13.30;99.90;;;;;;4956455;28;20071;-80
2023/10/12 08:52:53;;;;;;;12.73;2.10;;;13.40;99.90;;;;;;4956339;29;20058;-80
2023/10/12 08:55:24;;;;;;;15.73;2.67;;;13.40;99.90;;;;;;4956523;29;20050;-79
2023/10/12 08:58:18;;;;;;;14.65;2.65;;;13.40;99.90;;;;;;4956534;29;20117;-80
2023/10/12 09:03:27;;;;;;;13.60;2.05;;;13.50;99.90;;;;;;4956303;29;20083;-79
2023/10/12 09:05:54;;;;;;;18.48;2.58;;;13.50;99.90;;;;;;4956449;29;20047;-80
2023/10/12 09:10:55;;;;;;;14.30;2.22;;;13.60;99.90;;;;;;4956401;29;20395;-80
2023/10/12 09:13:23;;;;;;;12.18;1.95;;;13.70;99.90;;;;;;4956205;29;20047;-80
2023/10/12 09:15:55;;;;;;;10.75;1.67;;;13.60;99.90;;;;;;4957565;28;20039;-78
2023/10/12 09:18:30;;;;;;;10.82;1.50;;;13.70;99.90;;;;;;4956030;29;20078;-80
2023/10/12 09:23:28;;;;;;;11.63;2.08;;;13.80;99.90;;;;;;4955985;29;20054;-80
2023/10/12 09:26:13;;;;;;;10.93;2.22;;;13.90;99.90;;;;;;4939909;29;20600;-80
2023/10/12 09:31:13;;;;;;;12.32;1.42;;;13.90;99.90;;;;;;4955978;29;20048;-78
2023/10/12 09:34:00;;;;;;;11.52;2.13;;;13.90;99.90;;;;;;4939581;29;20043;-79
2023/10/12 09:36:37;;;;;;;10.60;1.48;;;14.00;99.90;;;;;;4955628;29;20035;-79
2023/10/12 09:39:03;;;;;;;18.70;2.05;;;14.00;99.90;;;;;;4955667;29;20134;-80
2023/10/12 09:41:33;;;;;;;9.60;1.42;;;14.00;99.90;;;;;;4956785;28;20067;-80
2023/10/12 09:44:04;;;;;;;8.68;1.45;;;14.00;99.90;;;;;;4955408;28;20058;-80
2023/10/12 09:46:33;;;;;;;9.77;1.40;;;14.00;99.90;;;;;;4955805;29;20083;-80
2023/10/12 09:49:21;;;;;;;15.05;2.38;;;13.90;99.90;;;;;;4956596;28;20062;-81
2023/10/12 09:51:50;;;;;;;10.02;1.60;;;13.90;99.90;;;;;;4955418;29;20127;-78
2023/10/12 09:54:27;;;;;;;11.73;1.67;;;13.90;99.90;;;;;;4955175;29;20051;-79
2023/10/12 09:57:09;;;;;;;;;;;;;;;;;;;;;
2023/10/12 09:59:51;;;;;;;7.68;1.25;;;13.80;99.90;;;;;;4955174;29;20550;-80
2023/10/12 10:02:33;;;;;;;8.80;1.38;;;13.80;99.90;;;;;;4955200;29;20047;-79
2023/10/12 10:05:26;;;;;;;10.52;2.25;;;13.80;99.90;;;;;;4955324;29;20123;-79
2023/10/12 10:07:55;;;;;;;12.48;1.73;;;13.80;99.90;;;;;;4954450;29;20047;-80
2023/10/12 10:10:33;;;;;;;7.85;1.48;;;13.70;99.90;;;;;;4955075;28;20054;-79
2023/10/12 10:13:00;;;;;;;10.95;2.00;;;13.80;99.90;;;;;;4953920;29;20047;-79
2023/10/12 10:15:44;;;;;;;13.75;1.42;;;13.80;99.90;;;;;;4956406;29;20056;-79
2023/10/12 10:18:16;;;;;;;12.55;1.58;;;13.70;99.90;;;;;;4955059;29;20396;-81
2023/10/12 10:20:53;;;;;;;7.40;1.30;;;13.80;99.90;;;;;;4953803;29;20054;-79
2023/10/12 10:23:23;;;;;;;16.13;2.40;;;13.80;99.90;;;;;;4937829;29;20487;-79
2023/10/12 10:26:13;;;;;;;8.55;1.55;;;13.80;99.90;;;;;;4953882;29;20138;-78
2023/10/12 10:28:48;;;;;;;14.25;2.22;;;13.80;99.90;;;;;;4954107;29;20109;-77
2023/10/12 10:31:27;;;;;;;11.85;1.95;;;13.90;99.90;;;;;;4938041;29;20398;-78
2023/10/12 10:33:57;;;;;;;5.45;1.58;;;14.00;99.90;;;;;;4953678;29;20051;-78
2023/10/12 10:36:26;;;;;;;10.30;1.30;;;13.90;99.90;;;;;;4953748;29;20117;-78
2023/10/12 10:41:38;;;;;;;9.15;1.35;;;14.00;99.90;;;;;;4954715;29;20376;-77
2023/10/12 10:44:08;;;;;;;10.48;1.52;;;14.00;99.90;;;;;;4954500;29;20049;-77
2023/10/12 10:46:39;;;;;;;10.60;1.50;;;14.00;99.90;;;;;;4954359;29;20039;-78
2023/10/12 10:49:06;;;;;;;11.05;1.60;;;14.00;99.90;;;;;;4954341;29;20514;-77
2023/10/12 10:51:32;;;;;;;8.88;1.42;;;14.00;99.90;;;;;;4954455;29;20093;-77
2023/10/12 10:53:59;;;;;;;10.40;1.30;;;14.00;99.90;;;;;;4953835;28;20561;-78
2023/10/12 10:56:37;;;;;;;9.15;1.45;;;14.00;99.90;;;;;;4954045;29;20079;-77
2023/10/12 10:59:06;;;;;;;12.85;1.30;;;14.00;99.90;;;;;;4954288;29;20047;-78
2023/10/12 11:01:31;;;;;;;6.70;1.25;;;14.10;99.90;;;;;;4954210;29;20090;-77
2023/10/12 11:03:58;;;;;;;10.13;1.98;;;14.10;99.90;;;;;;4954420;29;20448;-78
2023/10/12 11:06:27;;;;;;;8.55;1.30;;;14.10;99.90;;;;;;4954090;29;20126;-79
2023/10/12 11:09:07;;;;;;;14.23;1.40;;;14.10;99.90;;;;;;4954675;29;20039;-78
2023/10/12 11:11:44;;;;;;;6.82;1.73;;;14.10;99.90;;;;;;4954268;29;20055;-78
2023/10/12 11:14:12;;;;;;;6.38;1.20;;;14.10;99.90;;;;;;4954064;29;20054;-78
2023/10/12 11:16:43;;;;;;;11.18;1.38;;;14.10;99.90;;;;;;4953947;29;20070;-78
2023/10/12 11:19:12;;;;;;;9.10;1.52;;;14.10;99.90;;;;;;4937966;29;20043;-79
2023/10/12 11:21:45;;;;;;;12.55;1.90;;;14.10;99.90;;;;;;4953748;29;20542;-77
2023/10/12 11:24:13;;;;;;;13.38;1.75;;;14.10;99.90;;;;;;4954147;29;20067;-78
2023/10/12 11:27:01;;;;;;;10.88;1.67;;;14.10;99.90;;;;;;4954066;29;20133;-77
2023/10/12 11:29:27;;;;;;;11.48;1.70;;;14.10;99.90;;;;;;4953851;29;20106;-77
2023/10/12 11:32:10;;;;;;;9.95;1.55;;;14.10;99.90;;;;;;4953754;29;20050;-77
2023/10/12 11:34:56;;;;;;;11.90;2.58;;;14.10;99.90;;;;;;4953844;29;20051;-77
2023/10/12 11:37:23;;;;;;;9.60;1.70;;;14.10;99.90;;;;;;4953779;29;20035;-77
2023/10/12 11:39:50;;;;;;;8.13;1.20;;;14.10;99.90;;;;;;4937551;29;20040;-77
2023/10/12 11:42:17;;;;;;;9.02;1.10;;;14.10;99.90;;;;;;4937966;29;20039;-77
2023/10/12 11:44:46;;;;;;;12.13;1.63;;;14.20;99.90;;;;;;4955220;29;20046;-77
2023/10/12 11:47:37;;;;;;;11.43;2.10;;;14.20;99.90;;;;;;4953638;29;20039;-77
2023/10/12 11:50:04;;;;;;;7.60;1.75;;;14.20;99.90;;;;;;4953923;29;20043;-79
2023/10/12 11:52:39;;;;;;;10.07;1.40;;;14.10;99.90;;;;;;4953776;29;20486;-77
2023/10/12 11:55:18;;;;;;;9.75;1.60;;;14.20;99.90;;;;;;4955154;29;20039;-77
2023/10/12 11:57:54;;;;;;;17.75;1.80;;;14.10;99.90;;;;;;4953784;29;20131;-78
2023/10/12 12:00:39;;;;;;;11.15;1.60;;;14.10;99.90;;;;;;4953747;29;20047;-78
2023/10/12 12:03:08;;;;;;;12.40;1.50;;;14.10;99.90;;;;;;4938248;29;20094;-78
2023/10/12 12:05:36;;;;;;;10.43;1.77;;;14.10;99.90;;;;;;4944797;29;20126;-78
2023/10/12 12:08:31;;;;;;;10.45;1.83;;;14.10;99.90;;;;;;4939724;29;20042;-78
2023/10/12 12:10:54;;;;;;;6.07;1.25;;;14.10;99.90;;;;;;4938287;29;20047;-78
2023/10/12 12:13:21;;;;;;;9.50;1.20;;;14.10;99.90;;;;;;4938899;29;20048;-78
2023/10/12 12:15:48;;;;;;;10.02;2.35;;;14.10;99.90;;;;;;4937975;29;20476;-80
2023/10/12 12:18:20;;;;;;;13.05;1.25;;;14.10;99.90;;;;;;4938478;29;20095;-78
2023/10/12 12:20:51;;;;;;;8.43;1.88;;;14.10;99.90;;;;;;4939023;29;20036;-79
2023/10/12 12:23:17;;;;;;;11.68;1.50;;;14.20;99.90;;;;;;4938065;29;20087;-79
2023/10/12 12:25:44;;;;;;;11.25;1.50;;;14.20;99.90;;;;;;4938076;29;20044;-80
2023/10/12 12:28:18;;;;;;;10.60;1.60;;;14.10;99.90;;;;;;4938107;29;20051;-80
2023/10/12 12:30:51;;;;;;;8.18;1.60;;;14.20;99.90;;;;;;4938328;29;20051;-79
2023/10/12 12:33:20;;;;;;;8.63;1.20;;;14.10;99.90;;;;;;4937675;29;20056;-78
2023/10/12 12:35:47;;;;;;;7.90;1.30;;;14.10;99.90;;;;;;4937924;29;20063;-79
2023/10/12 12:40:57;;;;;;;11.85;1.38;;;14.20;99.90;;;;;;4939494;29;20050;-77
2023/10/12 12:43:23;;;;;;;8.95;1.27;;;14.10;99.90;;;;;;4937807;29;20048;-79
2023/10/12 12:45:49;;;;;;;9.57;1.55;;;14.10;99.90;;;;;;4938140;29;20090;-78
2023/10/12 12:48:14;;;;;;;12.60;1.73;;;14.20;99.90;;;;;;4938729;29;20051;-78
2023/10/12 12:50:43;;;;;;;8.68;1.42;;;14.20;99.90;;;;;;4921536;29;20051;-78
2023/10/12 12:53:11;;;;;;;11.13;2.03;;;14.20;99.90;;;;;;4937406;29;20055;-78
2023/10/12 12:55:38;;;;;;;10.82;1.48;;;14.20;99.90;;;;;;4937504;29;20055;-78
2023/10/12 12:58:14;;;;;;;12.57;1.70;;;14.20;99.90;;;;;;4922674;29;20040;-78
2023/10/12 13:00:40;;;;;;;8.65;1.85;;;14.10;99.90;;;;;;4938432;29;20043;-77
2023/10/12 13:03:09;;;;;;;9.48;1.38;;;14.20;99.90;;;;;;4937663;29;20051;-77
2023/10/12 13:05:35;;;;;;;7.75;1.30;;;14.20;99.90;;;;;;4937251;29;20043;-79
2023/10/12 13:08:00;;;;;;;13.32;1.80;;;14.20;99.90;;;;;;4937296;29;20476;-78
2023/10/12 13:10:26;;;;;;;6.50;1.35;;;14.10;99.90;;;;;;4937138;29;20484;-78
2023/10/12 13:12:53;;;;;;;7.53;1.35;;;14.10;99.90;;;;;;4937890;29;20102;-79
2023/10/12 13:15:19;;;;;;;7.28;1.75;;;14.10;99.90;;;;;;4938524;29;20114;-79
2023/10/12 13:17:44;;;;;;;7.65;1.45;;;14.10;99.90;;;;;;4936350;29;20044;-78
2023/10/12 13:20:21;;;;;;;9.68;1.83;;;14.00;99.90;;;;;;4937136;29;20044;-78
2023/10/12 13:22:50;;;;;;;7.65;1.33;;;14.00;99.90;;;;;;4936990;29;20055;-78
2023/10/12 13:25:18;;;;;;;11.57;1.35;;;14.00;99.90;;;;;;4937366;29;20468;-78
2023/10/12 13:27:51;;;;;;;8.27;1.20;;;14.00;99.90;;;;;;4936836;29;20051;-79
2023/10/12 13:30:18;;;;;;;12.00;2.30;;;14.00;99.90;;;;;;4936974;29;20369;-78
2023/10/12 13:32:47;;;;;;;12.02;1.55;;;13.90;99.90;;;;;;4936618;29;20051;-78
2023/10/12 13:35:28;;;;;;;11.35;1.70;;;13.90;99.90;;;;;;4936546;29;20115;-76
2023/10/12 13:38:04;;;;;;;8.82;1.60;;;13.90;99.90;;;;;;4937148;29;20043;-76
2023/10/12 13:40:30;;;;;;;8.68;1.48;;;13.90;99.90;;;;;;4936985;29;20087;-78
2023/10/12 13:43:06;;;;;;;11.13;2.45;;;13.90;99.90;;;;;;4936400;29;20043;-78
2023/10/12 13:45:33;;;;;;;11.40;2.33;;;13.90;99.90;;;;;;4920853;29;20043;-79
2023/10/12 13:47:59;;;;;;;15.38;3.03;;;13.80;99.90;;;;;;4920697;29;20051;-79
2023/10/12 13:50:24;;;;;;;9.73;2.38;;;13.80;99.90;;;;;;4937725;29;20106;-78
2023/10/12 13:52:50;;;;;;;12.45;2.50;;;13.70;99.90;;;;;;4936333;29;20048;-78
2023/10/12 13:55:15;;;;;;;14.32;2.55;;;13.70;99.90;;;;;;4936211;29;20120;-79
2023/10/12 13:57:51;;;;;;;12.30;2.20;;;13.70;99.90;;;;;;4936286;29;20051;-79
2023/10/12 14:00:25;;;;;;;17.17;2.60;;;13.60;99.90;;;;;;4937392;29;20075;-79
2023/10/12 14:02:59;;;;;;;17.80;2.90;;;13.60;99.90;;;;;;4936519;29;20118;-79
2023/10/12 14:05:28;;;;;;;10.50;2.33;;;13.60;99.90;;;;;;4937268;29;20097;-79
2023/10/12 14:08:01;;;;;;;14.40;2.67;;;13.50;99.90;;;;;;4936404;29;20127;-79
2023/10/12 14:10:27;;;;;;;18.30;3.03;;;13.50;99.90;;;;;;4935785;29;20098;-79
2023/10/12 14:12:59;;;;;;;12.95;2.83;;;13.50;99.90;;;;;;4935554;29;20035;-79
2023/10/12 14:15:27;;;;;;;10.02;2.42;;;13.40;99.90;;;;;;4935796;29;20115;-79
2023/10/12 14:17:56;;;;;;;15.23;3.47;;;13.40;99.90;;;;;;4935643;29;20048;-80
2023/10/12 14:20:26;;;;;;;19.25;3.88;;;13.40;99.90;;;;;;4937149;29;20043;-78
2023/10/12 14:22:57;;;;;;;19.13;3.92;;;13.40;99.90;;;;;;4935616;29;20047;-79
2023/10/12 14:25:28;;;;;;;14.95;3.90;;;13.30;99.90;;;;;;4920393;29;20054;-79
2023/10/12 14:27:54;;;;;;;18.30;3.97;;;13.30;99.90;;;;;;4935529;29;20055;-79
2023/10/12 14:30:28;;;;;;;15.88;4.05;;;13.30;99.90;;;;;;4934513;29;20047;-78
2023/10/12 14:33:05;;;;;;;13.32;4.05;;;13.40;99.90;;;;;;4919825;29;20044;-79
2023/10/12 14:35:39;;;;;;;15.75;3.40;;;13.30;99.90;;;;;;4935484;29;20035;-79
2023/10/12 14:38:12;;;;;;;17.25;4.28;;;13.30;99.90;;;;;;4935249;29;20079;-79
2023/10/12 14:40:40;;;;;;;14.32;3.45;;;13.40;99.90;;;;;;4935879;29;20058;-79
2023/10/12 14:43:10;;;;;;;15.30;3.45;;;13.40;99.90;;;;;;4935305;29;20051;-80
2023/10/12 14:45:37;;;;;;;15.27;3.22;;;13.40;99.90;;;;;;4936489;29;20480;-79
2023/10/12 14:48:10;;;;;;;17.88;3.50;;;13.40;99.90;;;;;;4935535;29;20130;-78
2023/10/12 14:50:45;;;;;;;17.13;3.30;;;13.40;99.90;;;;;;4936624;29;20095;-79
2023/10/12 14:53:15;;;;;;;;;;;13.40;99.90;;;;;;4936513;29;20043;-80
2023/10/12 14:55:48;;;;;;;14.73;3.50;;;13.30;99.90;;;;;;4935349;29;19926;-79
2023/10/12 14:58:16;;;;;;;14.05;3.20;;;13.30;99.90;;;;;;4936756;29;20044;-80
2023/10/12 15:00:45;;;;;;;10.52;2.90;;;13.30;99.90;;;;;;4936632;29;20122;-79
2023/10/12 15:03:25;;;;;;;16.40;3.25;;;13.30;99.90;;;;;;4935270;29;20040;-79
2023/10/12 15:05:52;;;;;;;23.15;4.07;;;13.30;99.90;;;;;;4935342;29;20054;-80
2023/10/12 15:08:23;;;;;;;14.20;3.58;;;13.30;99.90;;;;;;4936352;29;20036;-79
2023/10/12 15:10:49;;;;;;;13.60;3.20;;;13.20;99.90;;;;;;4936521;29;20043;-80
2023/10/12 15:13:16;;;;;;;16.73;3.55;;;13.20;99.90;;;;;;4936631;29;20050;-80
2023/10/12 15:15:45;;;;;;;11.55;3.47;;;13.20;99.90;;;;;;4935058;29;20046;-80
2023/10/12 15:18:12;;;;;;;15.38;3.17;;;13.20;99.90;;;;;;4934726;29;20507;-80
2023/10/12 15:20:38;;;;;;;17.83;3.35;;;13.20;99.90;;;;;;4934816;29;20048;-79
2023/10/12 15:23:04;;;;;;;14.63;3.42;;;13.20;99.90;;;;;;4934702;29;20051;-80
2023/10/12 15:25:30;;;;;;;14.25;3.15;;;13.10;99.90;;;;;;4934806;29;20458;-80
2023/10/12 15:27:56;;;;;;;15.15;3.05;;;13.10;99.90;;;;;;4934621;29;20086;-78
2023/10/12 15:30:22;;;;;;;14.10;3.20;;;13.10;99.90;;;;;;4934816;29;20070;-81
2023/10/12 15:32:49;;;;;;;15.52;4.43;;;13.10;99.90;;;;;;4934406;29;20065;-79
2023/10/12 15:35:25;;;;;;;12.77;3.40;;;13.00;99.90;;;;;;4918927;29;20075;-79
2023/10/12 15:37:52;;;;;;;14.88;3.15;;;13.00;99.90;;;;;;4934520;29;20051;-79
2023/10/12 15:40:20;;;;;;;15.88;3.63;;;12.90;99.90;;;;;;4934845;29;20044;-79
2023/10/12 15:42:47;;;;;;;19.10;3.45;;;13.00;99.90;;;;;;4938154;29;20103;-79
2023/10/12 15:45:13;;;;;;;10.82;3.40;;;12.90;99.90;;;;;;4938879;29;20059;-79
2023/10/12 15:47:39;;;;;;;13.30;3.80;;;13.00;99.90;;;;;;4938577;29;20054;-80
2023/10/12 15:50:05;;;;;;;12.70;3.50;;;12.90;99.90;;;;;;4938306;29;20403;-80
2023/10/12 15:52:31;;;;;;;15.73;3.60;;;12.90;99.90;;;;;;4936821;29;20044;-79
2023/10/12 15:54:57;;;;;;;14.82;4.10;;;12.90;99.90;;;;;;4937940;29;20048;-79
2023/10/12 15:57:23;;;;;;;12.88;3.80;;;12.90;99.90;;;;;;4938661;29;20111;-80
2023/10/12 15:59:49;;;;;;;12.75;5.10;;;12.90;99.90;;;;;;4939981;29;20071;-80
2023/10/12 16:02:14;;;;;;;15.43;4.63;;;12.90;99.90;;;;;;4939369;29;20054;-79
2023/10/12 16:04:45;;;;;;;15.15;4.00;;;12.80;99.90;;;;;;4923035;29;20143;-79
2023/10/12 16:07:17;;;;;;;12.18;4.05;;;12.80;99.90;;;;;;4938040;29;20122;-78
2023/10/12 16:09:49;;;;;;;9.48;4.25;;;12.90;99.90;;;;;;4939381;29;20499;-80
2023/10/12 16:12:19;;;;;;;15.88;4.53;;;12.80;99.90;;;;;;4937754;29;20044;-78
2023/10/12 16:14:50;;;;;;;10.70;3.92;;;12.90;99.90;;;;;;4939527;29;20051;-79
2023/10/12 16:17:16;;;;;;;16.20;4.70;;;12.90;99.90;;;;;;4938431;29;20168;-78
2023/10/12 16:19:43;;;;;;;13.75;4.82;;;12.90;99.90;;;;;;4939339;29;20107;-79
2023/10/12 16:22:09;;;;;;;15.85;4.90;;;12.90;99.90;;;;;;4937795;29;20051;-80
2023/10/12 16:24:36;;;;;;;16.10;4.25;;;12.90;99.90;;;;;;4938025;29;20054;-79
2023/10/12 16:27:03;;;;;;;13.50;4.30;;;12.90;99.90;;;;;;4938891;29;20051;-79
2023/10/12 16:29:30;;;;;;;15.98;4.68;;;12.90;99.90;;;;;;4937804;29;20127;-80
2023/10/12 16:31:58;;;;;;;13.68;4.93;;;12.90;99.90;;;;;;4956742;29;20050;-80
2023/10/12 16:34:24;;;;;;;12.30;4.57;;;12.90;99.90;;;;;;4958459;29;20075;-80
2023/10/12 16:36:50;;;;;;;10.38;4.22;;;12.90;99.90;;;;;;4956719;29;20049;-80
2023/10/12 16:39:16;;;;;;;15.48;5.10;;;12.90;99.90;;;;;;4956681;29;20043;-80
2023/10/12 16:41:42;;;;;;;15.93;4.65;;;12.90;99.90;;;;;;4956511;29;20130;-79
2023/10/12 16:44:08;;;;;;;9.18;4.05;;;12.90;99.90;;;;;;4956611;29;20489;-79
2023/10/12 16:46:34;;;;;;;13.10;4.90;;;12.80;99.90;;;;;;4956416;29;20101;-79
2023/10/12 16:49:00;;;;;;;11.88;4.88;;;12.80;99.90;;;;;;4956347;29;20043;-79
2023/10/12 16:51:26;;;;;;;17.75;5.50;;;12.80;99.90;;;;;;4940268;28;20106;-79
2023/10/12 16:53:52;;;;;;;16.08;5.15;;;12.80;99.90;;;;;;4955406;29;20498;-80
2023/10/12 16:56:17;;;;;;;15.82;5.20;;;12.80;99.90;;;;;;4956262;29;20475;-80
2023/10/12 16:58:44;;;;;;;14.65;5.13;;;12.80;99.90;;;;;;4940378;29;20043;-79
2023/10/12 17:01:10;;;;;;;18.45;5.50;;;12.80;99.90;;;;;;4955767;29;20054;-80
2023/10/12 17:03:37;;;;;;;14.40;5.38;;;12.80;99.90;;;;;;4939968;29;20047;-80
2023/10/12 17:06:05;;;;;;;18.40;6.13;;;12.80;99.90;;;;;;4956189;29;20054;-79
2023/10/12 17:08:32;;;;;;;14.18;5.75;;;12.80;99.90;;;;;;4956585;28;20043;-80
2023/10/12 17:11:00;;;;;;;19.60;6.03;;;12.80;99.90;;;;;;4956055;29;20106;-79
2023/10/12 17:13:26;;;;;;;16.38;5.72;;;12.80;99.90;;;;;;4956007;29;20148;-80
2023/10/12 17:15:52;;;;;;;18.52;6.30;;;12.80;99.90;;;;;;4940169;29;20459;-80
2023/10/12 17:18:20;;;;;;;12.73;5.72;;;12.80;99.90;;;;;;4940057;29;20089;-79
2023/10/12 17:20:46;;;;;;;13.00;5.78;;;12.80;99.90;;;;;;4956189;29;20460;-79
2023/10/12 17:23:12;;;;;;;13.98;5.25;;;12.80;99.90;;;;;;4955956;29;20118;-80
2023/10/12 17:25:38;;;;;;;15.95;5.50;;;12.80;99.90;;;;;;4955814;29;20071;-79
2023/10/12 17:28:04;;;;;;;16.77;6.00;;;12.70;99.90;;;;;;4955849;29;20051;-79
2023/10/12 17:30:30;;;;;;;16.27;5.57;;;12.80;99.90;;;;;;4955663;29;20047;-79
2023/10/12 17:32:56;;;;;;;17.60;5.75;;;12.70;99.90;;;;;;4956154;29;20043;-81
2023/10/12 17:35:23;;;;;;;11.32;5.43;;;12.70;99.90;;;;;;4955868;29;20423;-78
2023/10/12 17:37:49;;;;;;;16.45;5.85;;;12.70;99.90;;;;;;4955874;29;20047;-82
2023/10/12 17:40:15;;;;;;;19.40;6.60;;;12.70;99.90;;;;;;4939639;29;20043;-79
2023/10/12 17:42:42;;;;;;;12.45;6.30;;;12.70;99.90;;;;;;4956747;28;20042;-79
2023/10/12 17:45:11;;;;;;;16.30;6.43;;;12.70;99.90;;;;;;4956181;29;20078;-78
2023/10/12 17:47:38;;;;;;;16.77;6.90;;;12.70;99.90;;;;;;4955857;28;20038;-79
2023/10/12 17:50:13;;;;;;;15.40;7.22;;;12.70;99.90;;;;;;4953781;29;20047;-79
2023/10/12 17:52:43;;;;;;;;;;;12.70;99.90;;;;;;4955699;29;20047;-78
2023/10/12 17:55:10;;;;;;;20.23;7.85;;;12.70;99.90;;;;;;4955413;29;20012;-80